sensor_id;sensor_type;location;lat;lon;timestamp;P1;durP1;ratioP1;P2;durP2;ratioP2
59530;SDS011;45349;48.692;8.186;2023-04-25T00:01:28;5.10;;;3.70;;
59530;SDS011;45349;48.692;8.186;2023-04-25T00:03:56;6.53;;;3.70;;
59530;SDS011;45349;48.692;8.186;2023-04-25T00:06:23;7.27;;;3.60;;
59530;SDS011;45349;48.692;8.186;2023-04-25T00:08:51;4.20;;;3.53;;
59530;SDS011;45349;48.692;8.186;2023-04-25T00:11:18;6.23;;;3.50;;
59530;SDS011;45349;48.692;8.186;2023-04-25T00:13:44;6.13;;;3.30;;
59530;SDS011;45349;48.692;8.186;2023-04-25T00:16:11;5.47;;;2.90;;
59530;SDS011;45349;48.692;8.186;2023-04-25T00:18:39;4.03;;;2.80;;
59530;SDS011;45349;48.692;8.186;2023-04-25T00:21:07;5.27;;;2.53;;
59530;SDS011;45349;48.692;8.186;2023-04-25T00:23:34;8.07;;;2.60;;
59530;SDS011;45349;48.692;8.186;2023-04-25T00:26:01;5.33;;;2.33;;
59530;SDS011;45349;48.692;8.186;2023-04-25T00:28:28;4.83;;;2.30;;
59530;SDS011;45349;48.692;8.186;2023-04-25T00:30:55;3.83;;;2.50;;
59530;SDS011;45349;48.692;8.186;2023-04-25T00:33:21;3.40;;;2.30;;
59530;SDS011;45349;48.692;8.186;2023-04-25T00:35:48;6.73;;;2.20;;
59530;SDS011;45349;48.692;8.186;2023-04-25T00:38:16;2.77;;;2.20;;
59530;SDS011;45349;48.692;8.186;2023-04-25T00:40:43;5.93;;;2.70;;
59530;SDS011;45349;48.692;8.186;2023-04-25T00:43:09;3.47;;;2.23;;
59530;SDS011;45349;48.692;8.186;2023-04-25T00:45:37;7.20;;;3.10;;
59530;SDS011;45349;48.692;8.186;2023-04-25T00:48:05;3.80;;;2.37;;
59530;SDS011;45349;48.692;8.186;2023-04-25T00:50:32;5.70;;;2.30;;
59530;SDS011;45349;48.692;8.186;2023-04-25T00:52:59;4.83;;;2.60;;
59530;SDS011;45349;48.692;8.186;2023-04-25T00:55:28;3.10;;;2.40;;
59530;SDS011;45349;48.692;8.186;2023-04-25T00:57:56;4.10;;;2.57;;
59530;SDS011;45349;48.692;8.186;2023-04-25T01:00:23;4.50;;;2.70;;
59530;SDS011;45349;48.692;8.186;2023-04-25T01:02:50;5.00;;;2.07;;
59530;SDS011;45349;48.692;8.186;2023-04-25T01:05:16;5.17;;;2.10;;
59530;SDS011;45349;48.692;8.186;2023-04-25T01:07:44;4.47;;;2.17;;
59530;SDS011;45349;48.692;8.186;2023-04-25T01:10:11;5.23;;;2.40;;
59530;SDS011;45349;48.692;8.186;2023-04-25T01:12:39;4.83;;;2.70;;
59530;SDS011;45349;48.692;8.186;2023-04-25T01:15:06;6.13;;;2.57;;
59530;SDS011;45349;48.692;8.186;2023-04-25T01:17:33;3.67;;;2.63;;
59530;SDS011;45349;48.692;8.186;2023-04-25T01:20:01;5.17;;;2.37;;
59530;SDS011;45349;48.692;8.186;2023-04-25T01:22:31;3.33;;;2.47;;
59530;SDS011;45349;48.692;8.186;2023-04-25T01:24:57;3.53;;;2.70;;
59530;SDS011;45349;48.692;8.186;2023-04-25T01:27:25;4.40;;;2.70;;
59530;SDS011;45349;48.692;8.186;2023-04-25T01:29:51;3.27;;;2.37;;
59530;SDS011;45349;48.692;8.186;2023-04-25T01:32:20;3.67;;;2.27;;
59530;SDS011;45349;48.692;8.186;2023-04-25T01:34:54;4.23;;;2.67;;
59530;SDS011;45349;48.692;8.186;2023-04-25T01:37:20;7.00;;;2.80;;
59530;SDS011;45349;48.692;8.186;2023-04-25T01:39:53;8.50;;;2.90;;
59530;SDS011;45349;48.692;8.186;2023-04-25T01:42:21;4.07;;;2.87;;
59530;SDS011;45349;48.692;8.186;2023-04-25T01:44:51;3.07;;;2.77;;
59530;SDS011;45349;48.692;8.186;2023-04-25T01:47:18;8.03;;;3.20;;
59530;SDS011;45349;48.692;8.186;2023-04-25T01:49:51;7.10;;;2.80;;
59530;SDS011;45349;48.692;8.186;2023-04-25T01:52:18;4.13;;;2.80;;
59530;SDS011;45349;48.692;8.186;2023-04-25T01:54:53;5.37;;;3.43;;
59530;SDS011;45349;48.692;8.186;2023-04-25T01:57:20;4.90;;;3.17;;
59530;SDS011;45349;48.692;8.186;2023-04-25T01:59:52;5.07;;;3.10;;
59530;SDS011;45349;48.692;8.186;2023-04-25T02:02:39;6.60;;;3.60;;
59530;SDS011;45349;48.692;8.186;2023-04-25T02:05:30;5.53;;;3.37;;
59530;SDS011;45349;48.692;8.186;2023-04-25T02:08:01;6.33;;;3.40;;
59530;SDS011;45349;48.692;8.186;2023-04-25T02:10:30;6.90;;;3.77;;
59530;SDS011;45349;48.692;8.186;2023-04-25T02:13:11;5.87;;;4.00;;
59530;SDS011;45349;48.692;8.186;2023-04-25T02:16:01;7.93;;;3.90;;
59530;SDS011;45349;48.692;8.186;2023-04-25T02:18:29;7.73;;;3.90;;
59530;SDS011;45349;48.692;8.186;2023-04-25T02:20:56;7.77;;;4.50;;
59530;SDS011;45349;48.692;8.186;2023-04-25T02:23:23;7.33;;;4.50;;
59530;SDS011;45349;48.692;8.186;2023-04-25T02:25:52;6.63;;;3.97;;
59530;SDS011;45349;48.692;8.186;2023-04-25T02:28:20;6.37;;;4.30;;
59530;SDS011;45349;48.692;8.186;2023-04-25T02:30:47;7.10;;;4.00;;
59530;SDS011;45349;48.692;8.186;2023-04-25T02:33:13;8.27;;;4.40;;
59530;SDS011;45349;48.692;8.186;2023-04-25T02:35:42;5.40;;;4.00;;
59530;SDS011;45349;48.692;8.186;2023-04-25T02:38:11;6.77;;;4.10;;
59530;SDS011;45349;48.692;8.186;2023-04-25T02:40:39;5.63;;;4.17;;
59530;SDS011;45349;48.692;8.186;2023-04-25T02:43:07;5.73;;;4.03;;
59530;SDS011;45349;48.692;8.186;2023-04-25T02:45:33;6.00;;;3.87;;
59530;SDS011;45349;48.692;8.186;2023-04-25T02:48:00;6.10;;;4.10;;
59530;SDS011;45349;48.692;8.186;2023-04-25T02:50:30;7.97;;;3.67;;
59530;SDS011;45349;48.692;8.186;2023-04-25T02:52:57;6.23;;;4.10;;
59530;SDS011;45349;48.692;8.186;2023-04-25T02:55:28;5.00;;;3.47;;
59530;SDS011;45349;48.692;8.186;2023-04-25T02:57:56;9.30;;;4.13;;
59530;SDS011;45349;48.692;8.186;2023-04-25T03:00:36;5.53;;;3.97;;
59530;SDS011;45349;48.692;8.186;2023-04-25T03:03:03;6.23;;;4.70;;
59530;SDS011;45349;48.692;8.186;2023-04-25T03:05:29;5.70;;;3.57;;
59530;SDS011;45349;48.692;8.186;2023-04-25T03:07:56;13.80;;;4.00;;
59530;SDS011;45349;48.692;8.186;2023-04-25T03:10:23;8.60;;;4.33;;
59530;SDS011;45349;48.692;8.186;2023-04-25T03:12:49;4.37;;;3.97;;
59530;SDS011;45349;48.692;8.186;2023-04-25T03:15:16;7.10;;;4.73;;
59530;SDS011;45349;48.692;8.186;2023-04-25T03:17:45;5.93;;;4.00;;
59530;SDS011;45349;48.692;8.186;2023-04-25T03:20:11;4.23;;;3.50;;
59530;SDS011;45349;48.692;8.186;2023-04-25T03:22:38;6.40;;;4.00;;
59530;SDS011;45349;48.692;8.186;2023-04-25T03:25:05;5.33;;;3.93;;
59530;SDS011;45349;48.692;8.186;2023-04-25T03:27:33;7.37;;;4.13;;
59530;SDS011;45349;48.692;8.186;2023-04-25T03:30:01;10.57;;;6.80;;
59530;SDS011;45349;48.692;8.186;2023-04-25T03:32:53;9.70;;;5.00;;
59530;SDS011;45349;48.692;8.186;2023-04-25T03:35:20;7.43;;;4.10;;
59530;SDS011;45349;48.692;8.186;2023-04-25T03:37:48;6.93;;;4.17;;
59530;SDS011;45349;48.692;8.186;2023-04-25T03:40:22;9.10;;;7.13;;
59530;SDS011;45349;48.692;8.186;2023-04-25T03:43:14;8.53;;;5.90;;
59530;SDS011;45349;48.692;8.186;2023-04-25T03:45:47;6.37;;;4.97;;
59530;SDS011;45349;48.692;8.186;2023-04-25T03:48:16;6.97;;;4.10;;
59530;SDS011;45349;48.692;8.186;2023-04-25T03:50:42;4.73;;;3.60;;
59530;SDS011;45349;48.692;8.186;2023-04-25T03:53:09;6.73;;;5.23;;
59530;SDS011;45349;48.692;8.186;2023-04-25T03:55:55;5.87;;;4.20;;
59530;SDS011;45349;48.692;8.186;2023-04-25T03:58:22;5.90;;;5.35;;
59530;SDS011;45349;48.692;8.186;2023-04-25T04:00:49;8.47;;;6.03;;
59530;SDS011;45349;48.692;8.186;2023-04-25T04:03:18;6.00;;;5.10;;
59530;SDS011;45349;48.692;8.186;2023-04-25T04:05:45;6.40;;;4.90;;
59530;SDS011;45349;48.692;8.186;2023-04-25T04:08:12;5.40;;;4.63;;
59530;SDS011;45349;48.692;8.186;2023-04-25T04:10:39;5.30;;;3.60;;
59530;SDS011;45349;48.692;8.186;2023-04-25T04:13:09;6.90;;;4.03;;
59530;SDS011;45349;48.692;8.186;2023-04-25T04:15:36;7.97;;;4.10;;
59530;SDS011;45349;48.692;8.186;2023-04-25T04:18:02;7.03;;;3.90;;
59530;SDS011;45349;48.692;8.186;2023-04-25T04:20:31;5.13;;;3.50;;
59530;SDS011;45349;48.692;8.186;2023-04-25T04:22:58;4.73;;;3.10;;
59530;SDS011;45349;48.692;8.186;2023-04-25T04:25:24;4.20;;;3.40;;
59530;SDS011;45349;48.692;8.186;2023-04-25T04:28:03;6.97;;;3.43;;
59530;SDS011;45349;48.692;8.186;2023-04-25T04:30:54;6.00;;;4.90;;
59530;SDS011;45349;48.692;8.186;2023-04-25T04:33:20;8.57;;;4.53;;
59530;SDS011;45349;48.692;8.186;2023-04-25T04:35:55;6.03;;;4.53;;
59530;SDS011;45349;48.692;8.186;2023-04-25T04:38:22;7.67;;;3.77;;
59530;SDS011;45349;48.692;8.186;2023-04-25T04:40:51;7.77;;;3.87;;
59530;SDS011;45349;48.692;8.186;2023-04-25T04:43:44;10.17;;;3.90;;
59530;SDS011;45349;48.692;8.186;2023-04-25T04:46:28;5.30;;;4.07;;
59530;SDS011;45349;48.692;8.186;2023-04-25T04:49:27;6.77;;;3.50;;
59530;SDS011;45349;48.692;8.186;2023-04-25T04:52:30;6.30;;;3.77;;
59530;SDS011;45349;48.692;8.186;2023-04-25T04:55:20;5.40;;;3.33;;
59530;SDS011;45349;48.692;8.186;2023-04-25T04:58:22;5.93;;;3.75;;
59530;SDS011;45349;48.692;8.186;2023-04-25T05:01:18;5.00;;;3.40;;
59530;SDS011;45349;48.692;8.186;2023-04-25T05:04:23;5.63;;;3.70;;
59530;SDS011;45349;48.692;8.186;2023-04-25T05:06:58;3.83;;;3.27;;
59530;SDS011;45349;48.692;8.186;2023-04-25T05:09:44;3.67;;;3.17;;
59530;SDS011;45349;48.692;8.186;2023-04-25T05:12:17;4.20;;;3.43;;
59530;SDS011;45349;48.692;8.186;2023-04-25T05:14:57;9.83;;;4.00;;
59530;SDS011;45349;48.692;8.186;2023-04-25T05:17:46;7.40;;;4.10;;
59530;SDS011;45349;48.692;8.186;2023-04-25T05:20:45;7.60;;;3.73;;
59530;SDS011;45349;48.692;8.186;2023-04-25T05:23:26;5.43;;;4.60;;
59530;SDS011;45349;48.692;8.186;2023-04-25T05:26:16;13.67;;;7.17;;
59530;SDS011;45349;48.692;8.186;2023-04-25T05:29:00;9.43;;;4.20;;
59530;SDS011;45349;48.692;8.186;2023-04-25T05:31:35;5.47;;;3.13;;
59530;SDS011;45349;48.692;8.186;2023-04-25T05:34:12;4.93;;;3.10;;
59530;SDS011;45349;48.692;8.186;2023-04-25T05:36:45;6.57;;;3.40;;
59530;SDS011;45349;48.692;8.186;2023-04-25T05:39:14;7.87;;;4.07;;
59530;SDS011;45349;48.692;8.186;2023-04-25T05:42:12;7.70;;;3.73;;
59530;SDS011;45349;48.692;8.186;2023-04-25T05:44:50;6.37;;;3.83;;
59530;SDS011;45349;48.692;8.186;2023-04-25T05:47:55;5.73;;;4.20;;
59530;SDS011;45349;48.692;8.186;2023-04-25T05:50:32;8.03;;;4.80;;
59530;SDS011;45349;48.692;8.186;2023-04-25T05:53:03;6.90;;;4.33;;
59530;SDS011;45349;48.692;8.186;2023-04-25T05:55:42;7.70;;;4.30;;
59530;SDS011;45349;48.692;8.186;2023-04-25T05:58:21;7.97;;;4.30;;
59530;SDS011;45349;48.692;8.186;2023-04-25T06:00:48;7.73;;;4.73;;
59530;SDS011;45349;48.692;8.186;2023-04-25T06:03:16;8.50;;;6.85;;
59530;SDS011;45349;48.692;8.186;2023-04-25T06:05:44;7.70;;;5.17;;
59530;SDS011;45349;48.692;8.186;2023-04-25T06:08:10;8.13;;;6.20;;
59530;SDS011;45349;48.692;8.186;2023-04-25T06:10:37;9.50;;;6.83;;
59530;SDS011;45349;48.692;8.186;2023-04-25T06:13:04;7.73;;;5.20;;
59530;SDS011;45349;48.692;8.186;2023-04-25T06:15:34;6.67;;;4.53;;
59530;SDS011;45349;48.692;8.186;2023-04-25T06:18:01;6.77;;;4.73;;
59530;SDS011;45349;48.692;8.186;2023-04-25T06:20:28;6.03;;;4.43;;
59530;SDS011;45349;48.692;8.186;2023-04-25T06:22:57;6.83;;;5.17;;
59530;SDS011;45349;48.692;8.186;2023-04-25T06:25:33;7.23;;;4.63;;
59530;SDS011;45349;48.692;8.186;2023-04-25T06:28:01;5.80;;;4.60;;
59530;SDS011;45349;48.692;8.186;2023-04-25T06:30:28;8.17;;;4.50;;
59530;SDS011;45349;48.692;8.186;2023-04-25T06:33:02;21.40;;;15.77;;
59530;SDS011;45349;48.692;8.186;2023-04-25T06:35:30;8.27;;;6.67;;
59530;SDS011;45349;48.692;8.186;2023-04-25T06:37:57;9.77;;;6.97;;
59530;SDS011;45349;48.692;8.186;2023-04-25T06:40:24;12.17;;;7.93;;
59530;SDS011;45349;48.692;8.186;2023-04-25T06:42:51;8.03;;;5.57;;
59530;SDS011;45349;48.692;8.186;2023-04-25T06:45:56;9.50;;;6.73;;
59530;SDS011;45349;48.692;8.186;2023-04-25T06:48:27;37.93;;;19.73;;
59530;SDS011;45349;48.692;8.186;2023-04-25T06:50:54;20.97;;;13.93;;
59530;SDS011;45349;48.692;8.186;2023-04-25T06:53:22;8.67;;;5.73;;
59530;SDS011;45349;48.692;8.186;2023-04-25T06:55:56;6.37;;;4.87;;
59530;SDS011;45349;48.692;8.186;2023-04-25T06:58:28;8.73;;;5.20;;
59530;SDS011;45349;48.692;8.186;2023-04-25T07:00:55;8.17;;;5.17;;
59530;SDS011;45349;48.692;8.186;2023-04-25T07:03:23;7.33;;;5.07;;
59530;SDS011;45349;48.692;8.186;2023-04-25T07:05:56;8.10;;;5.90;;
59530;SDS011;45349;48.692;8.186;2023-04-25T07:08:23;8.37;;;5.60;;
59530;SDS011;45349;48.692;8.186;2023-04-25T07:10:50;6.80;;;4.70;;
59530;SDS011;45349;48.692;8.186;2023-04-25T07:13:16;7.73;;;5.20;;
59530;SDS011;45349;48.692;8.186;2023-04-25T07:15:44;8.90;;;5.30;;
59530;SDS011;45349;48.692;8.186;2023-04-25T07:18:12;5.90;;;4.63;;
59530;SDS011;45349;48.692;8.186;2023-04-25T07:20:39;5.60;;;3.73;;
59530;SDS011;45349;48.692;8.186;2023-04-25T07:23:07;6.23;;;4.37;;
59530;SDS011;45349;48.692;8.186;2023-04-25T07:25:34;5.77;;;4.10;;
59530;SDS011;45349;48.692;8.186;2023-04-25T07:28:01;6.43;;;4.17;;
59530;SDS011;45349;48.692;8.186;2023-04-25T07:30:28;8.70;;;4.63;;
59530;SDS011;45349;48.692;8.186;2023-04-25T07:32:54;6.03;;;4.43;;
59530;SDS011;45349;48.692;8.186;2023-04-25T07:35:21;6.93;;;5.00;;
59530;SDS011;45349;48.692;8.186;2023-04-25T07:37:48;8.87;;;5.23;;
59530;SDS011;45349;48.692;8.186;2023-04-25T07:40:19;7.90;;;5.57;;
59530;SDS011;45349;48.692;8.186;2023-04-25T07:42:53;9.13;;;6.30;;
59530;SDS011;45349;48.692;8.186;2023-04-25T07:45:30;5.33;;;3.83;;
59530;SDS011;45349;48.692;8.186;2023-04-25T07:47:57;6.90;;;5.43;;
59530;SDS011;45349;48.692;8.186;2023-04-25T07:50:24;5.10;;;4.27;;
59530;SDS011;45349;48.692;8.186;2023-04-25T07:52:52;6.40;;;3.87;;
59530;SDS011;45349;48.692;8.186;2023-04-25T07:55:28;5.17;;;3.40;;
59530;SDS011;45349;48.692;8.186;2023-04-25T07:58:13;6.78;;;3.50;;
59530;SDS011;45349;48.692;8.186;2023-04-25T08:00:42;4.30;;;3.23;;
59530;SDS011;45349;48.692;8.186;2023-04-25T08:03:36;5.87;;;3.07;;
59530;SDS011;45349;48.692;8.186;2023-04-25T08:06:08;3.23;;;2.60;;
59530;SDS011;45349;48.692;8.186;2023-04-25T08:08:43;2.60;;;2.17;;
59530;SDS011;45349;48.692;8.186;2023-04-25T08:11:14;5.70;;;3.77;;
59530;SDS011;45349;48.692;8.186;2023-04-25T08:13:41;3.73;;;3.00;;
59530;SDS011;45349;48.692;8.186;2023-04-25T08:16:08;4.90;;;2.93;;
59530;SDS011;45349;48.692;8.186;2023-04-25T08:18:35;10.37;;;4.30;;
59530;SDS011;45349;48.692;8.186;2023-04-25T08:21:01;2.90;;;2.70;;
59530;SDS011;45349;48.692;8.186;2023-04-25T08:23:29;4.70;;;2.43;;
59530;SDS011;45349;48.692;8.186;2023-04-25T08:26:07;3.47;;;2.43;;
59530;SDS011;45349;48.692;8.186;2023-04-25T08:28:38;3.00;;;2.20;;
59530;SDS011;45349;48.692;8.186;2023-04-25T08:31:05;2.80;;;2.40;;
59530;SDS011;45349;48.692;8.186;2023-04-25T08:33:41;4.70;;;2.37;;
59530;SDS011;45349;48.692;8.186;2023-04-25T08:36:19;2.83;;;2.00;;
59530;SDS011;45349;48.692;8.186;2023-04-25T08:38:45;2.33;;;1.83;;
59530;SDS011;45349;48.692;8.186;2023-04-25T08:41:13;5.13;;;2.60;;
59530;SDS011;45349;48.692;8.186;2023-04-25T08:43:42;2.60;;;1.73;;
59530;SDS011;45349;48.692;8.186;2023-04-25T08:46:10;2.97;;;1.30;;
59530;SDS011;45349;48.692;8.186;2023-04-25T08:48:48;3.13;;;2.20;;
59530;SDS011;45349;48.692;8.186;2023-04-25T08:51:20;1.70;;;1.60;;
59530;SDS011;45349;48.692;8.186;2023-04-25T08:53:50;2.73;;;1.13;;
59530;SDS011;45349;48.692;8.186;2023-04-25T08:56:18;0.90;;;0.90;;
59530;SDS011;45349;48.692;8.186;2023-04-25T08:58:49;2.37;;;0.90;;
59530;SDS011;45349;48.692;8.186;2023-04-25T09:01:16;1.30;;;0.83;;
59530;SDS011;45349;48.692;8.186;2023-04-25T09:03:48;0.90;;;0.80;;
59530;SDS011;45349;48.692;8.186;2023-04-25T09:06:16;1.70;;;1.00;;
59530;SDS011;45349;48.692;8.186;2023-04-25T09:08:44;1.73;;;1.20;;
59530;SDS011;45349;48.692;8.186;2023-04-25T09:11:11;1.53;;;0.80;;
59530;SDS011;45349;48.692;8.186;2023-04-25T09:13:39;1.80;;;1.20;;
59530;SDS011;45349;48.692;8.186;2023-04-25T09:16:22;2.30;;;1.53;;
59530;SDS011;45349;48.692;8.186;2023-04-25T09:19:20;2.20;;;1.37;;
59530;SDS011;45349;48.692;8.186;2023-04-25T09:21:48;1.57;;;1.47;;
59530;SDS011;45349;48.692;8.186;2023-04-25T09:24:15;2.83;;;1.10;;
59530;SDS011;45349;48.692;8.186;2023-04-25T09:26:41;0.70;;;0.70;;
59530;SDS011;45349;48.692;8.186;2023-04-25T09:29:09;0.87;;;0.50;;
59530;SDS011;45349;48.692;8.186;2023-04-25T09:31:40;0.50;;;0.50;;
59530;SDS011;45349;48.692;8.186;2023-04-25T09:34:09;0.50;;;0.43;;
59530;SDS011;45349;48.692;8.186;2023-04-25T09:36:43;0.87;;;0.40;;
59530;SDS011;45349;48.692;8.186;2023-04-25T09:39:37;0.40;;;0.40;;
59530;SDS011;45349;48.692;8.186;2023-04-25T09:42:11;1.17;;;0.80;;
59530;SDS011;45349;48.692;8.186;2023-04-25T09:44:41;0.90;;;0.70;;
59530;SDS011;45349;48.692;8.186;2023-04-25T09:47:10;0.70;;;0.50;;
59530;SDS011;45349;48.692;8.186;2023-04-25T09:49:39;0.73;;;0.50;;
59530;SDS011;45349;48.692;8.186;2023-04-25T09:52:13;0.57;;;0.43;;
59530;SDS011;45349;48.692;8.186;2023-04-25T09:54:54;1.20;;;0.70;;
59530;SDS011;45349;48.692;8.186;2023-04-25T09:57:28;0.93;;;0.57;;
59530;SDS011;45349;48.692;8.186;2023-04-25T09:59:57;2.20;;;1.00;;
59530;SDS011;45349;48.692;8.186;2023-04-25T10:02:41;0.67;;;0.47;;
59530;SDS011;45349;48.692;8.186;2023-04-25T10:05:13;0.40;;;0.40;;
59530;SDS011;45349;48.692;8.186;2023-04-25T10:07:41;1.43;;;0.40;;
59530;SDS011;45349;48.692;8.186;2023-04-25T10:10:12;0.67;;;0.57;;
59530;SDS011;45349;48.692;8.186;2023-04-25T10:12:39;1.87;;;0.40;;
59530;SDS011;45349;48.692;8.186;2023-04-25T10:15:08;0.80;;;0.63;;
59530;SDS011;45349;48.692;8.186;2023-04-25T10:17:36;0.63;;;0.60;;
59530;SDS011;45349;48.692;8.186;2023-04-25T10:20:06;1.70;;;1.30;;
59530;SDS011;45349;48.692;8.186;2023-04-25T10:22:36;1.97;;;0.70;;
59530;SDS011;45349;48.692;8.186;2023-04-25T10:25:05;0.80;;;0.50;;
59530;SDS011;45349;48.692;8.186;2023-04-25T10:27:33;1.00;;;0.83;;
59530;SDS011;45349;48.692;8.186;2023-04-25T10:30:01;0.90;;;0.80;;
59530;SDS011;45349;48.692;8.186;2023-04-25T10:32:30;2.00;;;0.67;;
59530;SDS011;45349;48.692;8.186;2023-04-25T10:34:57;1.60;;;0.80;;
59530;SDS011;45349;48.692;8.186;2023-04-25T10:37:25;0.70;;;0.60;;
59530;SDS011;45349;48.692;8.186;2023-04-25T10:39:52;1.53;;;1.03;;
59530;SDS011;45349;48.692;8.186;2023-04-25T10:42:19;1.60;;;1.40;;
59530;SDS011;45349;48.692;8.186;2023-04-25T10:45:00;1.63;;;1.33;;
59530;SDS011;45349;48.692;8.186;2023-04-25T10:47:34;2.00;;;1.43;;
59530;SDS011;45349;48.692;8.186;2023-04-25T10:50:04;1.23;;;1.00;;
59530;SDS011;45349;48.692;8.186;2023-04-25T10:52:33;1.93;;;1.57;;
59530;SDS011;45349;48.692;8.186;2023-04-25T10:54:59;3.63;;;1.83;;
59530;SDS011;45349;48.692;8.186;2023-04-25T10:57:30;1.90;;;1.00;;
59530;SDS011;45349;48.692;8.186;2023-04-25T11:00:05;2.50;;;1.60;;
59530;SDS011;45349;48.692;8.186;2023-04-25T11:02:36;4.43;;;1.47;;
59530;SDS011;45349;48.692;8.186;2023-04-25T11:05:04;2.53;;;1.60;;
59530;SDS011;45349;48.692;8.186;2023-04-25T11:07:37;3.13;;;1.97;;
59530;SDS011;45349;48.692;8.186;2023-04-25T11:10:06;3.00;;;2.20;;
59530;SDS011;45349;48.692;8.186;2023-04-25T11:12:33;2.77;;;2.23;;
59530;SDS011;45349;48.692;8.186;2023-04-25T11:15:00;3.40;;;2.13;;
59530;SDS011;45349;48.692;8.186;2023-04-25T11:17:28;3.17;;;2.20;;
59530;SDS011;45349;48.692;8.186;2023-04-25T11:19:55;2.57;;;2.10;;
59530;SDS011;45349;48.692;8.186;2023-04-25T11:22:22;3.07;;;2.10;;
59530;SDS011;45349;48.692;8.186;2023-04-25T11:24:53;2.67;;;2.00;;
59530;SDS011;45349;48.692;8.186;2023-04-25T11:27:20;2.93;;;2.43;;
59530;SDS011;45349;48.692;8.186;2023-04-25T11:29:51;2.90;;;2.40;;
59530;SDS011;45349;48.692;8.186;2023-04-25T11:32:18;3.27;;;2.03;;
59530;SDS011;45349;48.692;8.186;2023-04-25T11:35:10;2.80;;;1.97;;
59530;SDS011;45349;48.692;8.186;2023-04-25T11:37:38;2.43;;;2.13;;
59530;SDS011;45349;48.692;8.186;2023-04-25T11:40:07;2.43;;;2.03;;
59530;SDS011;45349;48.692;8.186;2023-04-25T11:42:36;2.23;;;1.60;;
59530;SDS011;45349;48.692;8.186;2023-04-25T11:45:04;3.07;;;2.43;;
59530;SDS011;45349;48.692;8.186;2023-04-25T11:47:33;3.33;;;2.33;;
59530;SDS011;45349;48.692;8.186;2023-04-25T11:50:00;3.07;;;1.70;;
59530;SDS011;45349;48.692;8.186;2023-04-25T11:52:37;2.57;;;1.87;;
59530;SDS011;45349;48.692;8.186;2023-04-25T11:55:07;2.87;;;2.00;;
59530;SDS011;45349;48.692;8.186;2023-04-25T11:57:35;2.33;;;1.53;;
59530;SDS011;45349;48.692;8.186;2023-04-25T12:00:08;2.40;;;1.97;;
59530;SDS011;45349;48.692;8.186;2023-04-25T12:02:37;2.20;;;2.00;;
59530;SDS011;45349;48.692;8.186;2023-04-25T12:05:07;2.97;;;2.40;;
59530;SDS011;45349;48.692;8.186;2023-04-25T12:07:34;2.60;;;2.33;;
59530;SDS011;45349;48.692;8.186;2023-04-25T12:10:07;3.37;;;2.03;;
59530;SDS011;45349;48.692;8.186;2023-04-25T12:12:35;2.37;;;1.93;;
59530;SDS011;45349;48.692;8.186;2023-04-25T12:15:09;3.60;;;2.70;;
59530;SDS011;45349;48.692;8.186;2023-04-25T12:17:37;3.67;;;2.80;;
59530;SDS011;45349;48.692;8.186;2023-04-25T12:20:05;4.50;;;3.27;;
59530;SDS011;45349;48.692;8.186;2023-04-25T12:22:33;3.23;;;2.93;;
59530;SDS011;45349;48.692;8.186;2023-04-25T12:25:01;3.17;;;2.77;;
59530;SDS011;45349;48.692;8.186;2023-04-25T12:27:30;4.77;;;2.50;;
59530;SDS011;45349;48.692;8.186;2023-04-25T12:29:57;3.17;;;2.37;;
59530;SDS011;45349;48.692;8.186;2023-04-25T12:32:24;3.00;;;2.27;;
59530;SDS011;45349;48.692;8.186;2023-04-25T12:34:52;3.20;;;2.53;;
59530;SDS011;45349;48.692;8.186;2023-04-25T12:37:18;2.87;;;2.53;;
59530;SDS011;45349;48.692;8.186;2023-04-25T12:39:51;3.43;;;2.87;;
59530;SDS011;45349;48.692;8.186;2023-04-25T12:42:18;3.73;;;2.80;;
59530;SDS011;45349;48.692;8.186;2023-04-25T12:45:11;6.03;;;4.17;;
59530;SDS011;45349;48.692;8.186;2023-04-25T12:47:38;6.10;;;3.90;;
59530;SDS011;45349;48.692;8.186;2023-04-25T12:50:05;5.07;;;3.30;;
59530;SDS011;45349;48.692;8.186;2023-04-25T12:52:32;7.70;;;4.37;;
59530;SDS011;45349;48.692;8.186;2023-04-25T12:54:58;3.90;;;2.73;;
59530;SDS011;45349;48.692;8.186;2023-04-25T12:57:25;2.60;;;2.10;;
59530;SDS011;45349;48.692;8.186;2023-04-25T12:59:52;3.70;;;2.30;;
59530;SDS011;45349;48.692;8.186;2023-04-25T13:02:19;3.20;;;1.90;;
59530;SDS011;45349;48.692;8.186;2023-04-25T13:04:53;3.40;;;2.37;;
59530;SDS011;45349;48.692;8.186;2023-04-25T13:07:19;2.60;;;2.00;;
59530;SDS011;45349;48.692;8.186;2023-04-25T13:10:10;2.20;;;1.80;;
59530;SDS011;45349;48.692;8.186;2023-04-25T13:12:37;1.63;;;1.47;;
59530;SDS011;45349;48.692;8.186;2023-04-25T13:15:04;2.37;;;1.73;;
59530;SDS011;45349;48.692;8.186;2023-04-25T13:17:33;1.93;;;1.50;;
59530;SDS011;45349;48.692;8.186;2023-04-25T13:20:00;2.27;;;1.90;;
59530;SDS011;45349;48.692;8.186;2023-04-25T13:22:26;4.27;;;2.30;;
59530;SDS011;45349;48.692;8.186;2023-04-25T13:24:53;2.40;;;1.60;;
59530;SDS011;45349;48.692;8.186;2023-04-25T13:27:19;3.47;;;1.90;;
59530;SDS011;45349;48.692;8.186;2023-04-25T13:29:52;5.27;;;1.70;;
59530;SDS011;45349;48.692;8.186;2023-04-25T13:32:18;2.23;;;1.47;;
59530;SDS011;45349;48.692;8.186;2023-04-25T13:35:12;1.30;;;1.20;;
59530;SDS011;45349;48.692;8.186;2023-04-25T13:37:40;3.30;;;1.50;;
59530;SDS011;45349;48.692;8.186;2023-04-25T13:40:07;1.73;;;1.27;;
59530;SDS011;45349;48.692;8.186;2023-04-25T13:42:36;2.13;;;1.40;;
59530;SDS011;45349;48.692;8.186;2023-04-25T13:45:04;1.30;;;1.20;;
59530;SDS011;45349;48.692;8.186;2023-04-25T13:47:31;1.17;;;1.07;;
59530;SDS011;45349;48.692;8.186;2023-04-25T13:49:57;1.57;;;1.10;;
59530;SDS011;45349;48.692;8.186;2023-04-25T13:52:25;1.00;;;0.90;;
59530;SDS011;45349;48.692;8.186;2023-04-25T13:54:52;0.87;;;0.87;;
59530;SDS011;45349;48.692;8.186;2023-04-25T13:57:19;2.40;;;1.10;;
59530;SDS011;45349;48.692;8.186;2023-04-25T13:59:52;0.80;;;0.77;;
59530;SDS011;45349;48.692;8.186;2023-04-25T14:02:19;1.33;;;0.70;;
59530;SDS011;45349;48.692;8.186;2023-04-25T14:05:11;1.30;;;0.70;;
59530;SDS011;45349;48.692;8.186;2023-04-25T14:07:39;1.20;;;1.10;;
59530;SDS011;45349;48.692;8.186;2023-04-25T14:10:06;1.43;;;1.00;;
59530;SDS011;45349;48.692;8.186;2023-04-25T14:12:33;1.50;;;0.80;;
59530;SDS011;45349;48.692;8.186;2023-04-25T14:15:00;1.47;;;0.80;;
59530;SDS011;45349;48.692;8.186;2023-04-25T14:17:26;2.43;;;0.80;;
59530;SDS011;45349;48.692;8.186;2023-04-25T14:19:53;1.47;;;0.90;;
59530;SDS011;45349;48.692;8.186;2023-04-25T14:22:20;1.00;;;0.90;;
59530;SDS011;45349;48.692;8.186;2023-04-25T14:24:53;1.27;;;1.17;;
59530;SDS011;45349;48.692;8.186;2023-04-25T14:27:20;0.87;;;0.83;;
59530;SDS011;45349;48.692;8.186;2023-04-25T14:29:51;0.90;;;0.90;;
59530;SDS011;45349;48.692;8.186;2023-04-25T14:32:18;0.90;;;0.77;;
59530;SDS011;45349;48.692;8.186;2023-04-25T14:35:10;0.80;;;0.77;;
59530;SDS011;45349;48.692;8.186;2023-04-25T14:37:36;0.93;;;0.80;;
59530;SDS011;45349;48.692;8.186;2023-04-25T14:40:05;1.00;;;0.80;;
59530;SDS011;45349;48.692;8.186;2023-04-25T14:42:33;0.77;;;0.77;;
59530;SDS011;45349;48.692;8.186;2023-04-25T14:45:00;0.90;;;0.80;;
59530;SDS011;45349;48.692;8.186;2023-04-25T14:47:27;1.77;;;0.80;;
59530;SDS011;45349;48.692;8.186;2023-04-25T14:49:54;1.00;;;0.70;;
59530;SDS011;45349;48.692;8.186;2023-04-25T14:52:20;0.70;;;0.70;;
59530;SDS011;45349;48.692;8.186;2023-04-25T14:54:51;0.73;;;0.73;;
59530;SDS011;45349;48.692;8.186;2023-04-25T14:57:19;0.90;;;0.80;;
59530;SDS011;45349;48.692;8.186;2023-04-25T14:59:51;1.33;;;0.90;;
59530;SDS011;45349;48.692;8.186;2023-04-25T15:02:18;0.80;;;0.80;;
59530;SDS011;45349;48.692;8.186;2023-04-25T15:05:10;1.20;;;1.10;;
59530;SDS011;45349;48.692;8.186;2023-04-25T15:07:36;1.60;;;0.77;;
59530;SDS011;45349;48.692;8.186;2023-04-25T15:10:04;1.30;;;0.90;;
59530;SDS011;45349;48.692;8.186;2023-04-25T15:12:37;2.07;;;1.60;;